createdAt,value
2022-12-31T00:02:11.391Z,97255.16
2022-12-31T00:04:41.932Z,97259.40
2022-12-31T00:07:11.889Z,97262.33
2022-12-31T00:09:41.761Z,97268.48
2022-12-31T00:12:10.453Z,97272.26
2022-12-31T00:14:40.271Z,97275.94
2022-12-31T00:17:10.758Z,97280.47
2022-12-31T00:19:41.186Z,97283.34
2022-12-31T00:22:11.430Z,97279.39
2022-12-31T00:24:41.432Z,97281.50
2022-12-31T00:27:11.210Z,97282.81
2022-12-31T00:29:41.182Z,97283.02
2022-12-31T00:32:11.699Z,97283.80
2022-12-31T00:34:42.398Z,97292.27
2022-12-31T00:37:12.573Z,97296.30
2022-12-31T00:39:42.339Z,97293.09
2022-12-31T00:42:11.994Z,97286.96
2022-12-31T00:44:42.110Z,97282.64
2022-12-31T00:47:12.744Z,97281.95
2022-12-31T00:49:42.909Z,97288.11
2022-12-31T00:52:14.273Z,97293.55
2022-12-31T00:54:44.876Z,97295.84
2022-12-31T00:57:15.489Z,97293.70
2022-12-31T00:59:45.853Z,97300.22
2022-12-31T01:02:16.748Z,97299.27
2022-12-31T01:04:47.786Z,97297.49
2022-12-31T01:07:18.079Z,97301.98
2022-12-31T01:09:48.409Z,97304.70
2022-12-31T01:12:19.034Z,97305.42
2022-12-31T01:14:48.895Z,97305.54
2022-12-31T01:17:19.461Z,97301.25
2022-12-31T01:19:49.259Z,97296.31
2022-12-31T01:22:19.657Z,97294.66
2022-12-31T01:24:48.213Z,97296.20
2022-12-31T01:27:19.083Z,97302.94
2022-12-31T01:29:49.051Z,97306.58
2022-12-31T01:32:18.378Z,97302.30
2022-12-31T01:34:48.552Z,97301.84
2022-12-31T01:37:18.186Z,97301.80
2022-12-31T01:39:48.271Z,97302.81
2022-12-31T01:42:16.972Z,97303.95
2022-12-31T01:44:51.065Z,97307.80
2022-12-31T01:47:35.074Z,97307.65
2022-12-31T01:50:16.616Z,97307.92
2022-12-31T01:52:54.948Z,97310.83
2022-12-31T01:55:30.277Z,97308.98
2022-12-31T01:58:13.272Z,97303.28
2022-12-31T02:00:44.606Z,97305.73
2022-12-31T02:03:14.070Z,97309.94
2022-12-31T02:05:57.676Z,97307.35
2022-12-31T02:08:27.463Z,97311.98
2022-12-31T02:10:57.395Z,97310.40
2022-12-31T02:13:27.367Z,97303.15
2022-12-31T02:16:37.154Z,97301.30
2022-12-31T02:19:38.793Z,97303.55
2022-12-31T02:22:30.002Z,97301.02
2022-12-31T02:25:20.854Z,97302.23
2022-12-31T02:28:00.347Z,97308.41
2022-12-31T02:30:33.155Z,97309.48
2022-12-31T02:33:24.820Z,97306.60
2022-12-31T02:36:03.617Z,97305.34
2022-12-31T02:38:41.048Z,97310.99
2022-12-31T02:41:39.056Z,97315.81
2022-12-31T02:44:22.165Z,97316.84
2022-12-31T02:47:02.869Z,97314.82
2022-12-31T02:49:52.993Z,97315.36
2022-12-31T02:52:42.866Z,97311.02
2022-12-31T02:55:27.799Z,97309.80
2022-12-31T02:58:08.544Z,97310.67
2022-12-31T03:01:10.320Z,97306.68
2022-12-31T03:03:40.068Z,97303.50
2022-12-31T03:06:13.936Z,97308.73
2022-12-31T03:09:03.461Z,97307.56
2022-12-31T03:11:53.121Z,97293.85
2022-12-31T03:14:21.761Z,97300.12
2022-12-31T03:16:52.144Z,97306.98
2022-12-31T03:19:44.381Z,97317.99
2022-12-31T03:22:29.484Z,97317.95
2022-12-31T03:25:25.306Z,97320.95
2022-12-31T03:27:57.039Z,97316.02
2022-12-31T03:30:28.113Z,97320.10
2022-12-31T03:32:59.280Z,97319.01
2022-12-31T03:35:31.962Z,97323.09
2022-12-31T03:38:03.303Z,97330.04
2022-12-31T03:40:37.332Z,97330.79
2022-12-31T03:43:08.611Z,97330.62
2022-12-31T03:45:38.780Z,97333.11
2022-12-31T03:48:10.313Z,97337.69
2022-12-31T03:50:40.116Z,97337.50
2022-12-31T03:53:10.138Z,97341.59
2022-12-31T03:55:40.186Z,97339.33
2022-12-31T03:58:10.160Z,97333.88
2022-12-31T04:00:40.208Z,97333.21
2022-12-31T04:03:10.820Z,97341.02
2022-12-31T04:05:41.726Z,97337.55
2022-12-31T04:08:10.689Z,97339.36
2022-12-31T04:10:41.254Z,97335.69
2022-12-31T04:13:11.097Z,97346.44
2022-12-31T04:15:41.202Z,97347.73
2022-12-31T04:18:11.239Z,97349.21
2022-12-31T04:20:41.209Z,97347.23
2022-12-31T04:23:11.550Z,97346.81
2022-12-31T04:25:40.921Z,97344.02
2022-12-31T04:28:12.732Z,97344.16
2022-12-31T04:30:44.348Z,97342.10
2022-12-31T04:33:14.338Z,97340.02
2022-12-31T04:35:45.614Z,97344.29
2022-12-31T04:38:15.594Z,97341.20
2022-12-31T04:41:06.001Z,97341.09
2022-12-31T04:43:35.776Z,97344.55
2022-12-31T04:46:05.864Z,97340.75
2022-12-31T04:48:35.912Z,97340.67
2022-12-31T04:51:06.329Z,97340.39
2022-12-31T04:53:36.162Z,97351.55
2022-12-31T04:56:07.150Z,97364.14
2022-12-31T04:58:37.331Z,97369.03
2022-12-31T05:01:08.540Z,97356.39
2022-12-31T05:03:38.883Z,97356.86
2022-12-31T05:06:12.593Z,97356.11
2022-12-31T05:08:41.346Z,97352.89
2022-12-31T05:11:12.638Z,97357.35
2022-12-31T05:13:42.686Z,97355.14
2022-12-31T05:16:13.044Z,97359.00
2022-12-31T05:18:42.151Z,97362.33
2022-12-31T05:21:20.585Z,97365.33
2022-12-31T05:23:50.713Z,97359.25
2022-12-31T05:26:21.090Z,97359.14
2022-12-31T05:28:49.578Z,97359.48
2022-12-31T05:31:19.421Z,97362.98
2022-12-31T05:33:50.887Z,97362.11
2022-12-31T05:36:20.724Z,97367.42
2022-12-31T05:38:49.357Z,97368.92
2022-12-31T05:41:19.446Z,97368.95
2022-12-31T05:43:50.681Z,97365.97
2022-12-31T05:46:20.478Z,97370.35
2022-12-31T05:48:50.266Z,97375.45
2022-12-31T05:51:20.457Z,97376.20
2022-12-31T05:53:50.405Z,97376.98
2022-12-31T05:56:20.992Z,97379.45
2022-12-31T05:58:50.751Z,97376.41
2022-12-31T06:01:20.599Z,97379.74
2022-12-31T06:03:50.095Z,97380.73
2022-12-31T06:06:20.183Z,97382.48
2022-12-31T06:08:53.303Z,97389.94
2022-12-31T06:11:23.297Z,97390.61
2022-12-31T06:13:53.149Z,97390.64
2022-12-31T06:16:22.974Z,97390.36
2022-12-31T06:18:53.120Z,97385.20
2022-12-31T06:21:23.495Z,97387.80
2022-12-31T06:23:53.298Z,97394.34
2022-12-31T06:26:22.752Z,97396.39
2022-12-31T06:28:52.575Z,97399.03
2022-12-31T06:31:21.149Z,97400.52
2022-12-31T06:33:50.824Z,97402.54
2022-12-31T06:36:22.332Z,97403.48
2022-12-31T06:38:52.238Z,97402.23
2022-12-31T06:41:22.947Z,97405.48
2022-12-31T06:43:52.866Z,97404.10
2022-12-31T06:46:22.678Z,97401.20
2022-12-31T06:48:52.978Z,97413.06
2022-12-31T06:51:23.377Z,97409.56
2022-12-31T06:53:53.366Z,97412.73
2022-12-31T06:56:33.867Z,97419.73
2022-12-31T06:59:05.532Z,97431.92
2022-12-31T07:01:50.916Z,97442.41
2022-12-31T07:04:54.615Z,97442.85
2022-12-31T07:07:46.849Z,97443.23
2022-12-31T07:10:33.244Z,97445.82
2022-12-31T07:13:34.198Z,97438.02
2022-12-31T07:16:09.342Z,97435.39
2022-12-31T07:19:13.838Z,97432.95
2022-12-31T07:21:44.049Z,97428.59
2022-12-31T07:24:14.570Z,97431.25
2022-12-31T07:27:02.342Z,97433.48
2022-12-31T07:30:05.367Z,97434.04
2022-12-31T07:32:55.724Z,97436.86
2022-12-31T07:35:57.721Z,97454.11
2022-12-31T07:38:53.699Z,97451.40
2022-12-31T07:41:35.397Z,97459.15
2022-12-31T07:44:32.341Z,97454.73
2022-12-31T07:47:05.421Z,97455.56
2022-12-31T07:49:35.395Z,97451.52
2022-12-31T07:52:05.535Z,97456.96
2022-12-31T07:54:35.748Z,97452.75
2022-12-31T07:57:05.726Z,97454.70
2022-12-31T07:59:54.095Z,97453.36
2022-12-31T08:03:00.702Z,97456.11
2022-12-31T08:06:11.797Z,97462.08
2022-12-31T08:09:13.947Z,97463.20
2022-12-31T08:11:55.658Z,97454.02
2022-12-31T08:14:26.525Z,97450.84
2022-12-31T08:16:56.998Z,97450.72
2022-12-31T08:19:31.945Z,97445.92
2022-12-31T08:22:28.827Z,97446.02
2022-12-31T08:25:23.562Z,97446.59
2022-12-31T08:28:13.851Z,97452.67
2022-12-31T08:30:53.092Z,97458.05
2022-12-31T08:33:44.311Z,97458.27
2022-12-31T08:36:44.791Z,97455.65
2022-12-31T08:39:46.013Z,97463.73
2022-12-31T08:42:37.857Z,97462.04
2022-12-31T08:45:20.339Z,97460.82
2022-12-31T08:48:02.871Z,97468.52
2022-12-31T08:50:34.736Z,97472.59
2022-12-31T08:53:05.173Z,97469.83
2022-12-31T08:55:35.682Z,97463.23
2022-12-31T08:58:16.220Z,97460.44
2022-12-31T09:00:50.573Z,97461.52
2022-12-31T09:03:36.789Z,97457.41
2022-12-31T09:06:22.806Z,97461.40
2022-12-31T09:09:16.506Z,97458.88
2022-12-31T09:12:07.189Z,97459.08
2022-12-31T09:14:56.347Z,97455.63
2022-12-31T09:17:44.195Z,97458.23
2022-12-31T09:20:42.262Z,97463.02
2022-12-31T09:23:14.550Z,97453.70
2022-12-31T09:26:01.668Z,97449.66
2022-12-31T09:29:16.242Z,97438.98
2022-12-31T09:32:09.271Z,97432.88
2022-12-31T09:34:45.726Z,97431.83
2022-12-31T09:37:30.205Z,97432.30
2022-12-31T09:40:24.043Z,97428.63
2022-12-31T09:43:18.853Z,97425.44
2022-12-31T09:46:22.860Z,97430.42
2022-12-31T09:49:39.484Z,97425.33
2022-12-31T09:52:24.636Z,97422.85
2022-12-31T09:55:13.561Z,97413.82
2022-12-31T09:58:13.641Z,97409.71
2022-12-31T10:00:58.543Z,97420.27
2022-12-31T10:03:32.566Z,97419.61
2022-12-31T10:06:17.624Z,97411.78
2022-12-31T10:09:28.108Z,97407.39
2022-12-31T10:12:28.196Z,97402.13
2022-12-31T10:15:34.952Z,97411.46
2022-12-31T10:18:38.511Z,97409.23
2022-12-31T10:21:32.313Z,97413.14
2022-12-31T10:24:24.071Z,97403.93
2022-12-31T10:27:19.100Z,97399.42
2022-12-31T10:30:23.846Z,97402.10
2022-12-31T10:33:21.269Z,97401.13
2022-12-31T10:36:16.872Z,97401.29
2022-12-31T10:39:16.406Z,97394.67
2022-12-31T10:42:17.151Z,97397.55
2022-12-31T10:45:17.151Z,97399.52
2022-12-31T10:47:50.350Z,97390.14
2022-12-31T10:50:34.721Z,97384.83
2022-12-31T10:53:48.093Z,97373.50
2022-12-31T10:56:44.471Z,97372.14
2022-12-31T10:59:36.596Z,97358.78
2022-12-31T11:02:39.573Z,97355.91
2022-12-31T11:05:46.673Z,97355.83
2022-12-31T11:08:52.931Z,97353.52
2022-12-31T11:11:43.881Z,97333.86
2022-12-31T11:14:45.422Z,97330.44
2022-12-31T11:17:20.431Z,97331.66
2022-12-31T11:19:58.036Z,97332.12
2022-12-31T11:22:51.673Z,97337.99
2022-12-31T11:25:52.220Z,97335.77
2022-12-31T11:28:29.873Z,97331.80
2022-12-31T11:31:13.370Z,97335.71
2022-12-31T11:34:04.996Z,97339.09
2022-12-31T11:36:52.841Z,97329.84
2022-12-31T11:39:31.645Z,97330.21
2022-12-31T11:42:30.536Z,97331.89
2022-12-31T11:45:50.529Z,97333.53
2022-12-31T11:48:31.009Z,97330.87
2022-12-31T11:51:26.394Z,97334.80
2022-12-31T11:54:17.980Z,97325.33
2022-12-31T11:57:02.752Z,97324.89
2022-12-31T11:59:32.622Z,97320.09
2022-12-31T12:02:24.939Z,97321.52
2022-12-31T12:04:58.699Z,97323.14
2022-12-31T12:07:30.421Z,97332.38
2022-12-31T12:10:12.552Z,97333.23
2022-12-31T12:12:43.701Z,97342.21
2022-12-31T12:15:33.238Z,97345.16
2022-12-31T12:18:36.568Z,97341.42
2022-12-31T12:21:17.077Z,97342.58
2022-12-31T12:24:01.278Z,97343.12
2022-12-31T12:26:43.558Z,97343.94
2022-12-31T12:29:21.328Z,97345.66
2022-12-31T12:32:17.992Z,97343.95
2022-12-31T12:34:50.096Z,97339.26
2022-12-31T12:37:26.202Z,97336.17
2022-12-31T12:40:01.370Z,97339.29
2022-12-31T12:42:32.098Z,97337.93
2022-12-31T12:45:19.219Z,97338.18
2022-12-31T12:47:55.380Z,97342.16
2022-12-31T12:50:37.366Z,97340.31
2022-12-31T12:53:33.279Z,97340.78
2022-12-31T12:56:12.795Z,97345.63
2022-12-31T12:58:59.856Z,97344.73
2022-12-31T13:02:15.249Z,97345.41
2022-12-31T13:05:03.198Z,97349.39
2022-12-31T13:07:58.701Z,97347.05
2022-12-31T13:10:56.722Z,97355.95
2022-12-31T13:13:39.318Z,97360.90
2022-12-31T13:16:23.201Z,97367.70
2022-12-31T13:19:12.511Z,97373.18
2022-12-31T13:22:02.303Z,97373.88
2022-12-31T13:24:50.479Z,97376.01
2022-12-31T13:27:46.349Z,97371.67
2022-12-31T13:30:44.812Z,97365.81
2022-12-31T13:33:20.096Z,97371.23
2022-12-31T13:35:59.401Z,97369.95
2022-12-31T13:38:50.637Z,97368.94
2022-12-31T13:41:42.837Z,97372.61
2022-12-31T13:44:48.651Z,97370.23
2022-12-31T13:47:31.054Z,97377.23
2022-12-31T13:50:20.258Z,97374.65
2022-12-31T13:53:07.958Z,97377.66
2022-12-31T13:56:02.412Z,97377.73
2022-12-31T13:58:58.034Z,97377.86
2022-12-31T14:01:40.695Z,97383.56
2022-12-31T14:04:14.056Z,97388.13
2022-12-31T14:07:03.731Z,97384.98
2022-12-31T14:09:35.650Z,97389.59
2022-12-31T14:12:46.561Z,97393.79
2022-12-31T14:15:32.572Z,97400.13
2022-12-31T14:18:34.013Z,97404.64
2022-12-31T14:21:27.465Z,97405.82
2022-12-31T14:24:23.342Z,97409.79
2022-12-31T14:26:59.932Z,97407.98
2022-12-31T14:29:45.319Z,97406.48
2022-12-31T14:33:02.967Z,97398.22
2022-12-31T14:35:51.575Z,97398.73
2022-12-31T14:38:29.692Z,97393.98
2022-12-31T14:41:43.418Z,97392.89
2022-12-31T14:44:41.503Z,97403.58
2022-12-31T14:47:34.177Z,97405.09
2022-12-31T14:50:11.325Z,97414.25
2022-12-31T14:52:51.357Z,97424.67
2022-12-31T14:55:24.581Z,97427.19
2022-12-31T14:58:26.511Z,97430.55
2022-12-31T15:01:03.733Z,97436.19
2022-12-31T15:03:32.385Z,97433.48
2022-12-31T15:06:24.794Z,97426.86
2022-12-31T15:09:11.917Z,97423.45
2022-12-31T15:12:22.940Z,97428.38
2022-12-31T15:15:01.703Z,97432.67
2022-12-31T15:17:37.185Z,97430.31
2022-12-31T15:20:37.510Z,97433.17
2022-12-31T15:23:22.582Z,97432.05
2022-12-31T15:26:00.593Z,97437.50
2022-12-31T15:28:34.897Z,97443.20
2022-12-31T15:31:20.639Z,97449.88
2022-12-31T15:34:02.865Z,97450.27
2022-12-31T15:36:36.038Z,97449.14
2022-12-31T15:39:12.100Z,97455.30
2022-12-31T15:42:18.855Z,97456.41
2022-12-31T15:44:44.325Z,97464.46
2022-12-31T15:47:40.879Z,97468.45
2022-12-31T15:50:20.914Z,97478.04
2022-12-31T15:52:56.950Z,97479.63
2022-12-31T15:55:50.556Z,97476.94
2022-12-31T15:58:23.482Z,97486.86
2022-12-31T16:01:01.927Z,97482.90
2022-12-31T16:03:32.551Z,97484.65
2022-12-31T16:06:05.086Z,97482.56
2022-12-31T16:08:36.521Z,97485.15
2022-12-31T16:11:09.167Z,97484.55
2022-12-31T16:13:47.762Z,97488.55
2022-12-31T16:16:29.372Z,97490.94
2022-12-31T16:19:01.979Z,97495.52
2022-12-31T16:21:38.995Z,97503.98
2022-12-31T16:24:32.436Z,97506.16
2022-12-31T16:27:07.176Z,97505.98
2022-12-31T16:29:42.149Z,97506.30
2022-12-31T16:32:16.347Z,97507.88
2022-12-31T16:34:47.428Z,97503.90
2022-12-31T16:37:21.141Z,97507.73
2022-12-31T16:40:01.418Z,97514.86
2022-12-31T16:42:31.639Z,97518.86
2022-12-31T16:45:24.920Z,97524.54
2022-12-31T16:47:55.132Z,97528.38
2022-12-31T16:50:25.580Z,97530.52
2022-12-31T16:53:08.027Z,97540.64
2022-12-31T16:55:41.697Z,97542.86
2022-12-31T16:58:23.158Z,97550.77
2022-12-31T17:00:53.810Z,97557.52
2022-12-31T17:03:25.954Z,97555.79
2022-12-31T17:06:17.463Z,97556.24
2022-12-31T17:08:57.269Z,97561.45
2022-12-31T17:11:35.492Z,97561.45
2022-12-31T17:14:14.867Z,97560.70
2022-12-31T17:17:07.225Z,97562.23
2022-12-31T17:19:40.356Z,97560.08
2022-12-31T17:22:17.459Z,97555.17
2022-12-31T17:24:49.271Z,97548.64
2022-12-31T17:27:20.171Z,97546.80
2022-12-31T17:29:50.415Z,97541.48
2022-12-31T17:32:37.601Z,97542.52
2022-12-31T17:35:35.464Z,97535.90
2022-12-31T17:38:23.518Z,97543.63
2022-12-31T17:41:05.863Z,97541.58
2022-12-31T17:43:39.192Z,97540.05
2022-12-31T17:46:17.013Z,97532.98
2022-12-31T17:48:53.649Z,97529.42
2022-12-31T17:51:24.385Z,97530.11
2022-12-31T17:53:54.918Z,97530.36
2022-12-31T17:56:24.984Z,97529.80
2022-12-31T17:58:57.227Z,97533.31
2022-12-31T18:01:27.509Z,97536.23
2022-12-31T18:03:57.779Z,97534.11
2022-12-31T18:06:27.902Z,97537.91
2022-12-31T18:08:57.744Z,97532.08
2022-12-31T18:11:28.050Z,97539.09
2022-12-31T18:13:58.069Z,97533.61
2022-12-31T18:16:28.229Z,97524.79
2022-12-31T18:19:00.636Z,97521.05
2022-12-31T18:21:33.428Z,97517.34
2022-12-31T18:26:35.026Z,97534.69
2022-12-31T18:29:18.286Z,97537.56
2022-12-31T18:31:49.363Z,97537.39
2022-12-31T18:34:19.645Z,97536.67
2022-12-31T18:36:49.435Z,97536.44
2022-12-31T18:39:18.039Z,97523.22
2022-12-31T18:41:52.471Z,97525.94
2022-12-31T18:44:23.427Z,97532.52
2022-12-31T18:46:53.847Z,97541.45
2022-12-31T18:49:23.539Z,97535.30
2022-12-31T18:51:54.531Z,97535.52
2022-12-31T18:54:24.878Z,97536.98
2022-12-31T18:56:57.189Z,97530.04
2022-12-31T18:59:26.740Z,97535.60
2022-12-31T19:01:57.075Z,97539.09
2022-12-31T19:04:28.429Z,97547.67
2022-12-31T19:06:59.029Z,97542.54
2022-12-31T19:09:45.251Z,97541.02
2022-12-31T19:12:17.296Z,97538.77
2022-12-31T19:14:47.153Z,97540.41
2022-12-31T19:17:15.802Z,97535.58
2022-12-31T19:19:45.690Z,97534.48
2022-12-31T19:22:18.334Z,97535.70
2022-12-31T19:24:48.187Z,97529.89
2022-12-31T19:27:17.849Z,97528.52
2022-12-31T19:29:46.874Z,97528.34
2022-12-31T19:32:16.686Z,97529.42
2022-12-31T19:34:46.519Z,97529.55
2022-12-31T19:37:16.543Z,97534.28
2022-12-31T19:39:45.922Z,97531.98
2022-12-31T19:42:16.512Z,97528.61
2022-12-31T19:44:46.336Z,97522.91
2022-12-31T19:47:16.114Z,97524.89
2022-12-31T19:49:45.919Z,97530.88
2022-12-31T19:52:15.532Z,97528.40
2022-12-31T19:54:45.330Z,97530.68
2022-12-31T19:57:15.424Z,97529.19
2022-12-31T19:59:44.651Z,97530.42
2022-12-31T20:02:14.539Z,97531.21
2022-12-31T20:04:44.628Z,97535.77
2022-12-31T20:07:14.416Z,97531.64
2022-12-31T20:09:44.159Z,97536.23
2022-12-31T20:12:13.949Z,97532.58
2022-12-31T20:14:42.633Z,97536.12
2022-12-31T20:17:12.210Z,97538.21
2022-12-31T20:19:42.125Z,97532.11
2022-12-31T20:22:10.824Z,97534.77
2022-12-31T20:24:40.828Z,97535.61
2022-12-31T20:27:16.533Z,97535.42
2022-12-31T20:29:47.396Z,97531.11
2022-12-31T20:32:16.145Z,97533.90
2022-12-31T20:34:45.878Z,97534.76
2022-12-31T20:37:15.095Z,97543.34
2022-12-31T20:39:44.681Z,97540.94
2022-12-31T20:42:14.466Z,97539.27
2022-12-31T20:44:44.267Z,97542.69
2022-12-31T20:47:14.227Z,97546.37
2022-12-31T20:50:10.373Z,97550.02
2022-12-31T20:52:34.390Z,97542.27
2022-12-31T20:55:04.677Z,97545.71
2022-12-31T20:57:34.723Z,97545.59
2022-12-31T21:00:05.314Z,97544.46
2022-12-31T21:02:42.257Z,97550.81
2022-12-31T21:05:13.761Z,97556.42
2022-12-31T21:07:43.395Z,97552.98
2022-12-31T21:10:13.272Z,97557.70
2022-12-31T21:12:50.022Z,97560.39
2022-12-31T21:15:21.887Z,97565.17
2022-12-31T21:17:52.131Z,97568.27
2022-12-31T21:20:21.971Z,97572.27
2022-12-31T21:22:51.930Z,97582.10
2022-12-31T21:25:21.759Z,97589.96
2022-12-31T21:27:51.845Z,97594.05
2022-12-31T21:30:20.704Z,97594.10
2022-12-31T21:32:51.530Z,97593.38
2022-12-31T21:38:13.735Z,97605.00
2022-12-31T21:40:45.474Z,97615.42
2022-12-31T21:43:16.309Z,97616.18
2022-12-31T21:45:48.502Z,97613.21
2022-12-31T21:48:21.756Z,97613.20
2022-12-31T21:50:59.390Z,97609.16
2022-12-31T21:53:36.199Z,97609.69
2022-12-31T21:56:11.917Z,97604.71
2022-12-31T21:58:45.565Z,97600.37
2022-12-31T22:01:41.193Z,97619.73
2022-12-31T22:04:35.186Z,97620.50
2022-12-31T22:07:01.152Z,97626.01
2022-12-31T22:09:31.617Z,97628.63
2022-12-31T22:12:01.821Z,97624.73
2022-12-31T22:14:31.517Z,97626.98
2022-12-31T22:17:01.568Z,97627.80
2022-12-31T22:19:33.711Z,97632.41
2022-12-31T22:22:13.890Z,97629.60
2022-12-31T22:24:42.608Z,97629.09
2022-12-31T22:27:29.217Z,97620.30
2022-12-31T22:30:01.507Z,97620.61
2022-12-31T22:32:31.655Z,97617.80
2022-12-31T22:35:01.846Z,97612.20
2022-12-31T22:37:56.850Z,97612.50
2022-12-31T22:40:22.913Z,97615.55
2022-12-31T22:42:51.511Z,97612.71
2022-12-31T22:45:23.019Z,97618.08
2022-12-31T22:47:53.555Z,97625.40
2022-12-31T22:50:23.580Z,97622.63
2022-12-31T22:52:53.754Z,97621.77
2022-12-31T22:55:22.387Z,97625.36
2022-12-31T22:57:54.216Z,97634.89
2022-12-31T23:00:40.329Z,97630.48
2022-12-31T23:03:10.302Z,97627.73
2022-12-31T23:05:40.136Z,97630.52
2022-12-31T23:08:20.676Z,97634.58
2022-12-31T23:11:00.864Z,97629.06
2022-12-31T23:13:52.458Z,97631.92
2022-12-31T23:16:43.206Z,97632.75
2022-12-31T23:19:32.664Z,97634.48
2022-12-31T23:22:22.285Z,97639.48
2022-12-31T23:24:52.525Z,97649.23
2022-12-31T23:27:22.584Z,97654.67
2022-12-31T23:29:52.364Z,97649.86
2022-12-31T23:32:22.264Z,97647.89
2022-12-31T23:34:53.839Z,97654.04
2022-12-31T23:37:23.818Z,97658.45
2022-12-31T23:39:53.608Z,97662.05
2022-12-31T23:42:22.886Z,97663.55
2022-12-31T23:44:53.997Z,97663.13
2022-12-31T23:47:23.852Z,97662.52
2022-12-31T23:49:52.740Z,97669.70
2022-12-31T23:52:21.422Z,97668.96
2022-12-31T23:54:51.342Z,97666.43
2022-12-31T23:57:22.764Z,97667.27
2022-12-31T23:59:51.777Z,97664.92
